Terminal Aerodrome Forecast
Issued by NWS

Home | Current Version | Previous Version | Text Only | Print | Product List | Glossary On
Versions: 1 2 3 4 5 6 7 8 9 10 11 12 13 14 15
000
FTUS43 KMQT 012338
TAFSAW
TAF
KSAW 012338Z 0200/0224 28010G15KT P6SM SCT100
     FM020100 20006KT P6SM SCT100
     FM020500 21005KT P6SM BKN100 WS010/27035KT
     FM021100 23005KT P6SM VCSH BKN090
     FM021500 24005KT P6SM -SHRA SCT040 BKN060
     FM021800 01007KT 6SM SHRA SCT030 OVC040
     FM022200 34006KT P6SM BKN070=

USA.gov is the U.S. government's official web portal to all federal, state and local government web resources and services.